Список аэропортов
Фактическая погода:

23 апреля, 12:30
Температура: +3°C (-1.2*)
Ветер: сев.-западный 5 м/с
Давление: *748 мм
неб. облачность
210 м
разорв. обл.
кучево-дождевые 600 м
разорв. обл.
1290 м
Время (МСК)Темп. СВетерВлажностьДавлениеОблачностьОсадки
09:00+1СЗ, 3 м/с96%995 гПаоблачнодождь
10:00+2СЗ, 3 м/с96%996 гПаоблачнодождь
11:00+2СЗ, 3 м/с95%997 гПаоблачнодождь
12:00+2СЗ, 3 м/с96%997 гПаоблачнодождь
13:00+2СЗ, 3 м/с95%998 гПаоблачнодождь
14:00+4СЗ, 3 м/с91%999 гПаоблачнодождь
15:00+5СЗ, 2 м/с87%999 гПаоблачнодождь
16:00+5СЗ, 3 м/с84%999 гПаоблачносл. дождь
17:00+5З, 3 м/с84%1000 гПаоблачно
18:00+5З, 3 м/с83%1000 гПаоблачно
19:00+4З, 3 м/с85%1001 гПаоблачно
20:00+3З, 3 м/с89%1001 гПаоблачно
21:00+2З, 2 м/с91%1002 гПаоблачно
22:00+2З, 3 м/с93%1002 гПаоблачно
23:00+1З, 3 м/с93%1003 гПаоблачно
24 апреля
00:00+1З, 3 м/с91%1003 гПаоблачно
01:00+1З, 3 м/с92%1003 гПаоблачносл. дождь
02:000З, 3 м/с95%1003 гПаоблачносл. снег
03:00-0ЮЗ, 2 м/с96%1003 гПаоблачносл. снег
04:00-1ЮЗ, 2 м/с97%1003 гПаоблачно
05:00-0ЮЗ, 2 м/с97%1003 гПаоблачносл. снег
06:00-0ЮЗ, 2 м/с96%1003 гПаоблачносл. снег
07:00+1ЮЗ, 2 м/с96%1003 гПаоблачносл. дождь
08:00+2З, 2 м/с94%1003 гПаоблачносл. дождь
09:00+3З, 3 м/с93%1004 гПаоблачно
10:00+4З, 4 м/с89%1004 гПаоблачно
11:00+5З, 4 м/с86%1005 гПас прояснениями
12:00+6З, 5 м/с80%1005 гПамалооблачносл. дождь
13:00+6З, 5 м/с77%1005 гПас прояснениямисл. дождь
14:00+6З, 6 м/с68%1006 гПамалооблачносл. дождь
15:00+7З, 5 м/с60%1006 гПамалооблачно
16:00+7З, 5 м/с58%1006 гПамалооблачно
17:00+7З, 5 м/с58%1006 гПаоблачно
18:00+6З, 4 м/с57%1006 гПаоблачно
19:00+6З, 4 м/с57%1006 гПаоблачно
20:00+5З, 3 м/с57%1006 гПаоблачно
21:00+4З, 2 м/с62%1007 гПаоблачно
22:00+3ЮЗ, 2 м/с72%1007 гПаоблачно
23:00+1ЮЗ, 2 м/с81%1007 гПас прояснениями
25 апреля
00:00-0ЮЗ, 2 м/с84%1007 гПас прояснениями
01:00-1ЮЗ, 2 м/с86%1007 гПамалооблачно
02:00-2ЮЗ, 2 м/с87%1008 гПаясно
03:00-2ЮЗ, 2 м/с94%1008 гПаясно
04:00-3Ю, 1 м/с96%1007 гПаясно
05:00-4ЮВ, 1 м/с97%1007 гПаясно
06:00-4Ю, 2 м/с96%1008 гПаясно
07:00-2Ю, 2 м/с94%1008 гПас прояснениями
08:000Ю, 2 м/с91%1008 гПас прояснениями
09:00+4Ю, 2 м/с80%1008 гПаоблачно